Johnstown, Ohio
Current Conditions -  °F | °C
As of 7:51 PM on Wednesday 22 Oct 2014 (Local Time) from KCMH Reporting Station
Overcast Overcast  
Wind Chill: 50°   Ceiling: 3000
Heat Index: 50°   Visibility: 10mi
Dew Point: 41°   Wind: 8mph
Humidity: 71%   Direction: 350°N
Pressure: 30.25"   Gusts: NA
Location:  40.15°N, 82.69°W
Report Text: KCMH 222351Z 35007KT 10SM OVC030 10/05 A3025 RMK AO2 SLP247 T01000050 10100 20094 53001
Loading
Personal Weather Stations






























Interactive Weather Map New forecast layout! Learn more

10-Day Weather Forecast

Advertisements
Track Severe Weather on mobile